createdAt,value
2018-02-08T00:01:46.075Z,47.13
2018-02-08T00:04:13.592Z,38.27
2018-02-08T00:06:41.934Z,52.17
2018-02-08T00:09:10.673Z,41.30
2018-02-08T00:11:38.212Z,36.77
2018-02-08T00:14:06.527Z,46.40
2018-02-08T00:16:34.074Z,42.97
2018-02-08T00:19:01.588Z,48.13
2018-02-08T00:21:29.147Z,48.43
2018-02-08T00:23:56.707Z,41.40
2018-02-08T00:26:24.238Z,41.57
2018-02-08T00:28:52.560Z,39.97
2018-02-08T00:31:20.848Z,47.43
2018-02-08T00:33:48.398Z,43.37
2018-02-08T00:36:15.919Z,40.77
2018-02-08T00:38:43.467Z,41.60
2018-02-08T00:41:11.753Z,41.60
2018-02-08T00:43:39.359Z,52.80
2018-02-08T00:46:06.916Z,54.07
2018-02-08T00:48:34.464Z,44.10
2018-02-08T00:51:02.031Z,39.43
2018-02-08T00:53:29.558Z,41.40
2018-02-08T00:55:57.199Z,43.63
2018-02-08T00:58:25.480Z,45.97
2018-02-08T01:00:53.014Z,40.97
2018-02-08T01:03:21.318Z,43.17
2018-02-08T01:05:48.838Z,40.87
2018-02-08T01:08:16.396Z,44.33
2018-02-08T01:10:43.931Z,45.13
2018-02-08T01:13:11.456Z,39.63
2018-02-08T01:15:39.011Z,48.07
2018-02-08T01:18:06.520Z,37.80
2018-02-08T01:20:34.078Z,36.90
2018-02-08T01:23:01.603Z,45.03
2018-02-08T01:25:29.123Z,47.70
2018-02-08T01:27:57.435Z,39.70
2018-02-08T01:30:24.967Z,34.50
2018-02-08T01:32:52.511Z,38.37
2018-02-08T01:35:20.752Z,48.80
2018-02-08T01:37:49.096Z,42.57
2018-02-08T01:40:16.618Z,43.57
2018-02-08T01:42:44.937Z,36.83
2018-02-08T01:45:12.487Z,48.83
2018-02-08T01:47:40.005Z,45.53
2018-02-08T01:50:08.287Z,40.43
2018-02-08T01:52:36.589Z,39.40
2018-02-08T01:55:04.103Z,49.93
2018-02-08T01:57:32.407Z,39.00
2018-02-08T01:59:59.935Z,45.43
2018-02-08T02:02:28.237Z,45.80
2018-02-08T02:04:55.724Z,44.53
2018-02-08T02:07:23.291Z,46.50
2018-02-08T02:09:50.802Z,44.03
2018-02-08T02:12:18.352Z,39.47
2018-02-08T02:14:46.601Z,41.93
2018-02-08T02:17:14.935Z,47.90
2018-02-08T02:19:42.447Z,51.57
2018-02-08T02:22:10.764Z,49.80
2018-02-08T02:24:38.272Z,49.73
2018-02-08T02:27:05.819Z,36.60
2018-02-08T02:29:33.350Z,37.70
2018-02-08T02:32:00.899Z,38.13
2018-02-08T02:34:28.456Z,42.97
2018-02-08T02:36:55.971Z,34.73
2018-02-08T02:39:23.488Z,42.10
2018-02-08T02:41:51.025Z,44.03
2018-02-08T02:44:18.562Z,46.97
2018-02-08T02:46:46.087Z,49.53
2018-02-08T02:49:14.437Z,48.37
2018-02-08T02:51:41.955Z,43.03
2018-02-08T02:54:09.463Z,43.60
2018-02-08T02:56:37.007Z,41.83
2018-02-08T02:59:04.541Z,48.97
2018-02-08T03:01:32.085Z,47.87
2018-02-08T03:03:59.623Z,42.43
2018-02-08T03:06:27.903Z,36.27
2018-02-08T03:08:56.225Z,45.83
2018-02-08T03:11:23.739Z,47.70
2018-02-08T03:13:51.258Z,38.60
2018-02-08T03:16:18.843Z,38.57
2018-02-08T03:18:46.389Z,45.23
2018-02-08T03:21:13.935Z,35.77
2018-02-08T03:23:41.476Z,37.87
2018-02-08T03:26:09.036Z,45.67
2018-02-08T03:28:36.587Z,37.53
2018-02-08T03:31:08.805Z,45.10
2018-02-08T03:33:37.541Z,33.57
2018-02-08T03:36:05.097Z,37.37
2018-02-08T03:38:32.623Z,44.67
2018-02-08T03:41:00.139Z,57.40
2018-02-08T03:43:27.703Z,43.97
2018-02-08T03:45:55.226Z,50.33
2018-02-08T03:48:22.712Z,43.83
2018-02-08T03:50:51.046Z,51.13
2018-02-08T03:53:18.555Z,43.70
2018-02-08T03:55:46.137Z,42.03
2018-02-08T03:58:14.420Z,40.33
2018-02-08T04:00:41.966Z,40.10
2018-02-08T04:03:10.264Z,33.97
2018-02-08T04:05:37.806Z,41.93
2018-02-08T04:08:05.356Z,33.97
2018-02-08T04:10:33.645Z,35.60
2018-02-08T04:13:01.200Z,40.77
2018-02-08T04:15:28.774Z,42.73
2018-02-08T04:17:56.297Z,44.23
2018-02-08T04:20:24.579Z,41.07
2018-02-08T04:22:52.858Z,44.37
2018-02-08T04:25:21.184Z,39.27
2018-02-08T04:27:48.731Z,46.87
2018-02-08T04:30:16.300Z,49.27
2018-02-08T04:32:43.840Z,47.93
2018-02-08T04:35:11.368Z,52.40
2018-02-08T04:37:38.919Z,43.63
2018-02-08T04:40:19.042Z,43.97
2018-02-08T04:42:58.377Z,48.53
2018-02-08T04:45:37.716Z,47.37
2018-02-08T04:48:08.166Z,46.53
2018-02-08T04:50:36.454Z,39.63
2018-02-08T04:53:03.998Z,40.20
2018-02-08T04:55:32.336Z,36.33
2018-02-08T04:57:59.851Z,45.17
2018-02-08T05:00:27.370Z,43.77
2018-02-08T05:02:56.194Z,36.33
2018-02-08T05:05:23.718Z,39.43
2018-02-08T05:07:52.016Z,44.50
2018-02-08T05:10:19.571Z,40.23
2018-02-08T05:12:47.857Z,43.80
2018-02-08T05:15:15.412Z,51.30
2018-02-08T05:17:42.943Z,45.03
2018-02-08T05:20:11.823Z,49.83
2018-02-08T05:22:39.370Z,44.30
2018-02-08T05:25:06.899Z,48.00
2018-02-08T05:27:34.458Z,44.67
2018-02-08T05:30:02.027Z,65.97
2018-02-08T05:32:29.550Z,51.37
2018-02-08T05:34:57.110Z,44.27
2018-02-08T05:37:24.663Z,38.43
2018-02-08T05:39:52.179Z,61.87
2018-02-08T05:42:19.720Z,64.17
2018-02-08T05:44:47.296Z,60.70
2018-02-08T05:47:15.563Z,60.47
2018-02-08T05:49:43.104Z,52.53
2018-02-08T05:52:10.573Z,43.63
2018-02-08T05:54:38.919Z,52.97
2018-02-08T05:57:06.467Z,47.83
2018-02-08T05:59:34.022Z,52.57
2018-02-08T06:02:01.537Z,46.50
2018-02-08T06:04:29.075Z,44.87
2018-02-08T06:06:56.594Z,57.07
2018-02-08T06:09:24.139Z,47.20
2018-02-08T06:11:52.433Z,44.10
2018-02-08T06:14:22.839Z,50.70
2018-02-08T06:16:57.373Z,53.30
2018-02-08T06:19:30.486Z,45.53
2018-02-08T06:21:59.261Z,52.87
2018-02-08T06:24:26.787Z,43.50
2018-02-08T06:26:55.096Z,63.13
2018-02-08T06:29:22.584Z,43.27
2018-02-08T06:31:50.939Z,48.47
2018-02-08T06:34:18.467Z,53.80
2018-02-08T06:36:46.042Z,50.77
2018-02-08T06:39:13.616Z,49.87
2018-02-08T06:41:41.140Z,45.97
2018-02-08T06:44:08.715Z,57.07
2018-02-08T06:46:36.285Z,48.33
2018-02-08T06:49:03.865Z,51.57
2018-02-08T06:51:31.415Z,46.13
2018-02-08T06:53:58.943Z,49.57
2018-02-08T06:56:26.501Z,52.23
2018-02-08T06:58:54.048Z,47.53
2018-02-08T07:01:21.587Z,48.70
2018-02-08T07:03:49.927Z,45.13
2018-02-08T07:06:17.464Z,55.80
2018-02-08T07:08:45.389Z,47.73
2018-02-08T07:11:13.730Z,45.10
2018-02-08T07:13:42.543Z,52.07
2018-02-08T07:16:10.887Z,58.50
2018-02-08T07:18:39.307Z,51.30
2018-02-08T07:21:06.855Z,46.90
2018-02-08T07:23:35.148Z,42.47
2018-02-08T07:26:03.477Z,51.00
2018-02-08T07:28:31.071Z,45.10
2018-02-08T07:30:59.382Z,55.57
2018-02-08T07:33:26.946Z,46.40
2018-02-08T07:35:54.499Z,54.57
2018-02-08T07:38:22.071Z,60.63
2018-02-08T07:40:49.603Z,56.70
2018-02-08T07:43:17.150Z,52.93
2018-02-08T07:45:45.598Z,70.27
2018-02-08T07:48:13.134Z,70.83
2018-02-08T07:50:40.674Z,64.23
2018-02-08T07:53:08.258Z,52.57
2018-02-08T07:55:35.846Z,55.43
2018-02-08T07:58:04.147Z,70.90
2018-02-08T08:00:31.809Z,63.40
2018-02-08T08:02:59.348Z,60.20
2018-02-08T08:05:27.655Z,71.03
2018-02-08T08:07:55.215Z,70.63
2018-02-08T08:10:23.248Z,66.17
2018-02-08T08:12:51.562Z,66.70
2018-02-08T08:15:19.117Z,71.87
2018-02-08T08:17:46.676Z,70.07
2018-02-08T08:20:15.087Z,69.40
2018-02-08T08:22:42.579Z,75.23
2018-02-08T08:25:10.142Z,60.17
2018-02-08T08:27:37.703Z,75.37
2018-02-08T08:30:05.231Z,69.77
2018-02-08T08:32:32.805Z,68.13
2018-02-08T08:35:01.112Z,71.83
2018-02-08T08:37:28.622Z,60.10
2018-02-08T08:39:56.185Z,66.00
2018-02-08T08:42:23.753Z,72.40
2018-02-08T08:44:52.051Z,69.83
2018-02-08T08:47:19.586Z,61.57
2018-02-08T08:49:47.953Z,75.93
2018-02-08T08:52:16.252Z,69.80
2018-02-08T08:54:43.798Z,74.83
2018-02-08T08:57:12.146Z,69.07
2018-02-08T08:59:39.684Z,64.17
2018-02-08T09:02:07.248Z,71.97
2018-02-08T09:04:34.781Z,67.93
2018-02-08T09:07:02.348Z,80.03
2018-02-08T09:09:29.904Z,59.87
2018-02-08T09:11:57.456Z,81.87
2018-02-08T09:14:25.012Z,76.00
2018-02-08T09:16:52.581Z,69.83
2018-02-08T09:19:20.141Z,83.73
2018-02-08T09:21:47.691Z,77.83
2018-02-08T09:24:15.267Z,73.60
2018-02-08T09:26:42.824Z,71.63
2018-02-08T09:29:10.385Z,75.10
2018-02-08T09:31:37.910Z,75.30
2018-02-08T09:34:05.683Z,69.33
2018-02-08T09:36:33.296Z,73.13
2018-02-08T09:39:01.549Z,70.57
2018-02-08T09:41:29.941Z,70.40
2018-02-08T09:43:57.472Z,71.20
2018-02-08T09:46:25.035Z,69.37
2018-02-08T09:48:52.599Z,73.53
2018-02-08T09:51:20.152Z,75.43
2018-02-08T09:53:47.707Z,74.47
2018-02-08T09:56:15.347Z,68.70
2018-02-08T09:58:42.907Z,69.97
2018-02-08T10:01:10.509Z,69.57
2018-02-08T10:03:38.051Z,71.90
2018-02-08T10:06:05.597Z,66.73
2018-02-08T10:08:33.149Z,66.23
2018-02-08T10:11:00.730Z,79.50
2018-02-08T10:13:28.279Z,68.27
2018-02-08T10:15:55.876Z,64.93
2018-02-08T10:18:24.187Z,64.37
2018-02-08T10:20:51.884Z,62.67
2018-02-08T10:23:19.460Z,73.17
2018-02-08T10:25:47.027Z,70.13
2018-02-08T10:28:15.315Z,61.50
2018-02-08T10:30:43.711Z,68.50
2018-02-08T10:33:11.268Z,58.00
2018-02-08T10:35:39.570Z,58.30
2018-02-08T10:38:07.129Z,60.00
2018-02-08T10:40:34.733Z,52.17
2018-02-08T10:43:03.054Z,56.90
2018-02-08T10:45:30.605Z,48.70
2018-02-08T10:47:58.176Z,48.07
2018-02-08T10:50:25.729Z,47.37
2018-02-08T10:52:53.280Z,47.20
2018-02-08T10:55:20.822Z,60.63
2018-02-08T10:57:48.480Z,48.83
2018-02-08T11:00:17.608Z,47.60
2018-02-08T11:02:45.232Z,45.93
2018-02-08T11:05:13.956Z,50.23
2018-02-08T11:07:42.333Z,43.27
2018-02-08T11:10:09.907Z,56.83
2018-02-08T11:12:37.496Z,45.53
2018-02-08T11:15:09.197Z,41.00
2018-02-08T11:17:38.072Z,38.20
2018-02-08T11:20:05.661Z,44.43
